Time;durP1;ratioP1;P1;durP2;ratioP2;P2;SDS_P1;SDS_P2;PMS_P1;PMS_P2;Temp;Humidity;BMP_temperature;BMP_pressure;BME280_temperature;BME280_humidity;BME280_pressure;Samples;Min_cycle;Max_cycle;Signal;HPM_P1;HPM_P2
2022/01/24 00:00:34;;;;;;;60.20;33.78;;;;;;;4.59;100.00;103323.50;5244036;28;20021;-68
2022/01/24 00:03:06;;;;;;;66.13;34.53;;;;;;;4.47;100.00;103323.66;5243923;28;20513;-68
2022/01/24 00:05:39;;;;;;;62.15;35.10;;;;;;;4.44;100.00;103321.03;5245230;28;20033;-68
2022/01/24 00:08:11;;;;;;;59.35;33.53;;;;;;;4.56;100.00;103327.94;5242307;28;20040;-68
2022/01/24 00:10:45;;;;;;;55.33;32.28;;;;;;;4.56;100.00;103317.38;5245793;28;20294;-68
2022/01/24 00:13:54;;;;;;;57.38;33.55;;;;;;;4.50;100.00;103318.31;5245068;28;20518;-68
2022/01/24 00:27:25;;;;;;;43.25;27.58;;;;;;;4.36;99.30;103323.75;5251495;28;20068;-68
2022/01/24 00:29:56;;;;;;;36.28;22.30;;;;;;;4.38;97.17;103318.47;5243167;28;20108;-68
2022/01/24 00:32:28;;;;;;;36.95;23.52;;;;;;;4.40;96.38;103316.69;5244281;28;20022;-68
2022/01/24 00:34:59;;;;;;;35.25;21.95;;;;;;;4.35;95.06;103310.56;5245936;28;20029;-68
2022/01/24 00:37:33;;;;;;;38.88;23.55;;;;;;;4.29;97.17;103315.00;5247752;28;20060;-68
2022/01/24 00:40:05;;;;;;;42.60;25.05;;;;;;;4.32;97.16;103312.34;5258436;28;20041;-68
2022/01/24 00:53:50;;;;;;;43.88;27.08;;;;;;;4.29;100.00;103306.19;5252734;28;20037;-68
2022/01/24 00:56:21;;;;;;;44.13;27.08;;;;;;;4.29;99.67;103311.50;5246578;28;20210;-68
2022/01/24 00:58:52;;;;;;;44.78;26.27;;;;;;;4.23;98.11;103314.19;5245549;28;20043;-68
2022/01/24 01:01:24;;;;;;;43.88;26.60;;;;;;;4.23;97.79;103315.06;5244557;28;20123;-68
2022/01/24 01:03:55;;;;;;;46.72;27.40;;;;;;;4.34;99.76;103317.63;5242175;28;20032;-68
2022/01/24 01:06:26;;;;;;;42.28;25.17;;;;;;;4.32;96.40;103308.81;5245982;28;20095;-68
2022/01/24 01:20:24;;;;;;;40.70;24.65;;;;;;;4.22;98.84;103308.06;5242846;28;20470;-68
2022/01/24 01:22:55;;;;;;;43.75;26.23;;;;;;;4.19;96.72;103312.50;5241423;28;20044;-68
2022/01/24 01:25:27;;;;;;;42.03;25.17;;;;;;;4.29;97.70;103300.91;5242564;28;20475;-68
2022/01/24 01:27:58;;;;;;;40.10;25.80;;;;;;;4.25;97.79;103300.06;5241071;28;20061;-68
2022/01/24 01:30:38;;;;;;;38.72;24.83;;;;;;;4.24;95.29;103300.13;5254258;28;20029;-68
2022/01/24 01:33:21;;;;;;;40.53;24.20;;;;;;;4.20;95.82;103296.63;5244702;28;20119;-68
2022/01/24 01:52:38;;;;;;;40.92;24.10;;;;;;;4.26;96.65;103303.63;5246689;28;20491;-68
2022/01/24 01:55:26;;;;;;;40.25;23.15;;;;;;;4.25;95.59;103300.06;5241138;28;20064;-68
2022/01/24 01:57:58;;;;;;;38.53;22.60;;;;;;;4.15;95.00;103301.06;5239825;28;20406;-68
2022/01/24 02:00:29;;;;;;;39.75;23.95;;;;;;;4.19;96.75;103299.28;5258531;28;20038;-68
2022/01/24 02:03:00;;;;;;;38.60;23.58;;;;;;;4.16;97.35;103308.13;5241931;28;20033;-68
2022/01/24 02:05:32;;;;;;;37.22;22.92;;;;;;;4.18;96.04;103298.41;5248960;28;20033;-68
2022/01/24 02:08:04;;;;;;;35.45;22.92;;;;;;;4.22;95.12;103304.50;5241042;28;20033;-68
2022/01/24 02:10:38;;;;;;;38.70;23.77;;;;;;;4.18;95.97;103295.75;5244335;28;20124;-68
2022/01/24 02:13:11;;;;;;;38.40;24.10;;;;;;;4.15;95.93;103295.78;5247255;28;20076;-68
2022/01/24 02:15:55;;;;;;;41.10;24.45;;;;;;;4.12;97.09;103298.44;5244930;28;20048;-68
2022/01/24 02:21:43;;;;;;;37.47;22.75;;;;;;;4.15;96.72;103289.63;5239075;28;20037;-67
2022/01/24 02:24:17;;;;;;;37.90;23.25;;;;;;;4.26;95.57;103283.34;5252542;28;20029;-68
2022/01/24 02:26:54;;;;;;;38.30;23.40;;;;;;;4.26;95.25;103282.47;5245203;28;20067;-68
2022/01/24 02:31:59;;;;;;;38.63;23.35;;;;;;;4.17;95.56;103286.06;5253332;28;20140;-68
2022/01/24 02:34:38;;;;;;;39.22;23.58;;;;;;;4.17;97.10;103280.78;5253449;28;20406;-68
2022/01/24 02:37:12;;;;;;;36.85;23.35;;;;;;;4.19;96.54;103286.06;5250425;28;20167;-68
2022/01/24 02:39:56;;;;;;;38.50;23.75;;;;;;;4.19;95.87;103279.00;5252649;28;20487;-68
2022/01/24 02:48:26;;;;;;;37.10;23.55;;;;;;;4.18;93.81;103273.72;5255744;28;20048;-68
2022/01/24 02:53:33;;;;;;;39.38;23.10;;;;;;;4.17;94.92;103272.88;5250224;28;20154;-67
2022/01/24 02:56:05;;;;;;;35.17;22.92;;;;;;;4.07;94.38;103272.09;5250456;28;20104;-67
2022/01/24 02:58:36;;;;;;;36.75;22.35;;;;;;;4.08;94.02;103267.66;5251228;28;20109;-67
2022/01/24 03:01:08;;;;;;;35.60;22.33;;;;;;;4.15;94.99;103269.38;5247802;28;20032;-67
2022/01/24 03:03:40;;;;;;;40.22;24.63;;;;;;;4.05;95.04;103267.72;5249771;28;20036;-66
2022/01/24 03:06:11;;;;;;;35.05;22.20;;;;;;;4.13;94.72;103265.88;5253545;28;20502;-67
2022/01/24 03:08:42;;;;;;;38.10;24.13;;;;;;;4.06;94.76;103266.81;5252184;28;20028;-67
2022/01/24 03:11:15;;;;;;;38.72;24.50;;;;;;;4.07;95.21;103268.56;5251943;28;20060;-67
2022/01/24 03:13:46;;;;;;;37.03;24.35;;;;;;;4.05;95.17;103260.66;5249044;28;20119;-67
2022/01/24 03:16:18;;;;;;;36.33;23.42;;;;;;;4.12;95.21;103265.00;5252132;28;20043;-67
2022/01/24 03:18:49;;;;;;;35.55;23.30;;;;;;;4.03;96.02;103262.44;5250796;28;20048;-66
2022/01/24 03:21:20;;;;;;;36.38;24.02;;;;;;;4.00;93.98;103256.31;5253332;28;20520;-67
2022/01/24 03:23:51;;;;;;;35.42;22.50;;;;;;;4.01;96.53;103256.31;5243627;28;20480;-66
2022/01/24 03:26:23;;;;;;;36.75;23.80;;;;;;;4.01;94.86;103256.31;5252529;28;20527;-67
2022/01/24 03:28:54;;;;;;;40.83;25.52;;;;;;;4.01;95.62;103252.75;5251465;28;20063;-67
2022/01/24 03:31:25;;;;;;;36.80;23.25;;;;;;;4.12;94.81;103249.16;5252130;28;20048;-67
2022/01/24 03:33:57;;;;;;;42.00;25.65;;;;;;;4.06;97.41;103245.69;5249842;28;20105;-67
2022/01/24 03:36:28;;;;;;;41.38;25.92;;;;;;;4.05;96.83;103247.44;5255715;28;20471;-66
2022/01/24 03:39:00;;;;;;;37.65;23.80;;;;;;;4.04;94.02;103250.97;5242372;28;20032;-67
2022/01/24 03:41:31;;;;;;;40.53;23.98;;;;;;;3.99;93.52;103252.81;5251961;28;20040;-66
2022/01/24 03:44:04;;;;;;;39.60;24.52;;;;;;;3.97;95.04;103249.31;5251915;28;20020;-66
2022/01/24 03:46:48;;;;;;;38.38;24.45;;;;;;;4.04;95.00;103248.31;5243021;28;20029;-66
2022/01/24 03:49:45;;;;;;;38.42;25.25;;;;;;;3.96;93.97;103252.81;5251116;28;20159;-66
2022/01/24 03:52:12;;;;;;;39.03;24.80;;;;;;;4.03;92.65;103259.81;5252285;28;20698;-66
2022/01/24 03:54:44;;;;;;;41.70;25.38;;;;;;;3.94;92.97;103254.59;5248145;28;20033;-67
2022/01/24 03:57:18;;;;;;;36.90;23.75;;;;;;;4.02;92.83;103262.47;5248657;28;20463;-66
2022/01/24 03:59:51;;;;;;;39.45;24.20;;;;;;;4.07;93.06;103256.22;5250715;28;20406;-66
2022/01/24 04:02:24;;;;;;;38.50;23.73;;;;;;;4.08;92.98;103257.09;5245904;28;20508;-67
2022/01/24 04:04:55;;;;;;;44.23;25.23;;;;;;;4.06;95.38;103248.31;5247890;28;20036;-67
2022/01/24 04:07:27;;;;;;;40.67;24.98;;;;;;;4.03;95.56;103254.53;5241566;28;20318;-66
2022/01/24 04:10:04;;;;;;;42.25;24.85;;;;;;;4.00;95.39;103254.53;5242914;28;20163;-66
2022/01/24 04:12:38;;;;;;;39.50;24.77;;;;;;;4.02;95.16;103247.47;5240574;28;20053;-66
2022/01/24 04:18:13;;;;;;;39.45;25.00;;;;;;;4.00;94.46;103254.53;5245748;28;20032;-66
2022/01/24 04:23:37;;;;;;;44.05;24.95;;;;;;;3.88;95.82;103242.34;5241172;28;20029;-66
2022/01/24 04:26:09;;;;;;;43.10;25.17;;;;;;;3.92;96.50;103238.75;5239649;28;20036;-67
2022/01/24 04:28:40;;;;;;;40.80;25.85;;;;;;;3.92;96.53;103240.53;5241644;28;20072;-66
2022/01/24 04:31:12;;;;;;;39.35;25.27;;;;;;;3.95;95.03;103239.63;5239601;28;20394;-66
2022/01/24 04:33:43;;;;;;;39.33;25.10;;;;;;;3.90;95.34;103247.59;5243904;28;20138;-67
2022/01/24 04:36:16;;;;;;;41.67;26.52;;;;;;;3.93;96.38;103244.91;5244421;28;20033;-68
2022/01/24 04:38:47;;;;;;;39.72;25.85;;;;;;;3.85;94.23;103254.69;5245703;28;20029;-68
2022/01/24 04:41:33;;;;;;;38.50;24.73;;;;;;;3.91;94.60;103250.25;5238970;28;20410;-67
2022/01/24 04:44:46;;;;;;;37.13;24.02;;;;;;;4.00;94.46;103248.38;5241863;28;20115;-66
2022/01/24 04:47:33;;;;;;;38.20;23.58;;;;;;;3.91;93.56;103254.63;5245236;28;20071;-66
2022/01/24 04:53:01;;;;;;;40.40;24.42;;;;;;;3.90;96.29;103255.53;5239374;28;20040;-67
2022/01/24 04:55:32;;;;;;;40.58;24.85;;;;;;;3.85;95.20;103259.97;5238210;28;20033;-66
2022/01/24 04:58:03;;;;;;;39.08;24.52;;;;;;;3.91;96.83;103251.97;5248229;28;20075;-66
2022/01/24 05:00:35;;;;;;;39.05;23.27;;;;;;;3.87;96.30;103259.09;5244949;28;20111;-66
2022/01/24 05:03:06;;;;;;;39.65;25.23;;;;;;;3.87;96.78;103259.09;5244660;28;20067;-66
2022/01/24 05:05:37;;;;;;;39.78;24.65;;;;;;;3.86;96.28;103256.47;5237179;28;20021;-66
2022/01/24 05:08:10;;;;;;;36.70;22.83;;;;;;;3.88;94.38;103265.25;5245696;28;20115;-67
2022/01/24 05:10:56;;;;;;;37.45;23.00;;;;;;;3.91;94.87;103258.16;5244057;28;20459;-68
2022/01/24 05:24:28;;;;;;;36.47;22.45;;;;;;;3.89;95.24;103266.97;5234852;28;20032;-67
2022/01/24 05:27:00;;;;;;;37.20;22.27;;;;;;;3.94;93.48;103259.88;5237200;28;20167;-66
2022/01/24 05:29:31;;;;;;;41.13;23.27;;;;;;;3.96;93.89;103258.09;5239025;28;20029;-66
2022/01/24 05:32:05;;;;;;;35.08;22.15;;;;;;;3.93;93.54;103252.84;5242806;28;21025;-66
2022/01/24 05:34:36;;;;;;;35.28;22.75;;;;;;;3.85;93.80;103252.03;5237702;28;20224;-66
2022/01/24 05:37:07;;;;;;;35.00;21.00;;;;;;;3.91;92.29;103251.97;5239800;28;20454;-66
2022/01/24 05:39:38;;;;;;;34.75;21.60;;;;;;;3.84;94.56;103245.03;5238448;28;20033;-67
2022/01/24 05:42:10;;;;;;;35.05;22.83;;;;;;;3.84;93.13;103248.53;5243666;28;20476;-66
2022/01/24 05:44:41;;;;;;;36.00;22.77;;;;;;;3.81;93.59;103247.69;5239012;28;20034;-67
2022/01/24 05:47:12;;;;;;;36.95;22.48;;;;;;;3.87;93.24;103255.53;5243243;28;20116;-66
2022/01/24 05:49:44;;;;;;;35.85;22.00;;;;;;;3.78;95.15;103252.97;5246892;28;20505;-66
2022/01/24 05:52:16;;;;;;;35.25;21.80;;;;;;;3.79;95.85;103255.63;5244921;28;20182;-66
2022/01/24 05:54:47;;;;;;;33.53;22.45;;;;;;;3.83;95.33;103254.69;5246771;28;20032;-66
2022/01/24 05:57:18;;;;;;;35.10;21.58;;;;;;;3.83;95.89;103259.13;5244311;28;20032;-66
2022/01/24 05:59:49;;;;;;;34.13;21.75;;;;;;;3.86;95.58;103256.47;5244418;28;20116;-66
2022/01/24 06:02:21;;;;;;;36.38;22.25;;;;;;;3.75;95.55;103264.47;5246826;28;20044;-66
2022/01/24 06:04:52;;;;;;;56.28;33.60;;;;;;;3.78;93.65;103258.25;5250075;28;20032;-66
2022/01/24 06:07:23;;;;;;;63.10;38.85;;;;;;;3.75;95.19;103258.31;5247725;28;20561;-66
2022/01/24 06:09:55;;;;;;;47.15;28.33;;;;;;;3.75;97.24;103259.19;5250845;28;20545;-66
2022/01/24 06:12:27;;;;;;;37.63;22.83;;;;;;;3.80;96.24;103265.31;5250666;28;20491;-66
2022/01/24 06:14:58;;;;;;;38.30;22.88;;;;;;;3.77;96.28;103259.19;5248039;28;20025;-66
2022/01/24 06:17:29;;;;;;;38.15;22.15;;;;;;;3.80;97.34;103256.53;5250148;28;20043;-66
2022/01/24 06:20:00;;;;;;;40.28;24.92;;;;;;;3.73;96.62;103253.91;5248334;28;20024;-66
2022/01/24 06:22:32;;;;;;;36.60;22.45;;;;;;;3.71;96.69;103255.69;5247966;28;20048;-66
2022/01/24 06:25:05;;;;;;;37.15;23.13;;;;;;;3.70;95.08;103256.59;5249492;28;20447;-66
2022/01/24 06:27:36;;;;;;;36.65;21.67;;;;;;;3.65;94.64;103258.38;5249166;28;20146;-66
2022/01/24 06:30:08;;;;;;;37.83;22.50;;;;;;;3.67;95.40;103264.53;5248855;28;20498;-67
2022/01/24 06:32:40;;;;;;;36.03;21.63;;;;;;;3.74;93.42;103268.00;5254057;28;20406;-68
2022/01/24 06:35:13;;;;;;;36.53;21.98;;;;;;;3.71;93.92;103263.59;5251105;28;20033;-68
2022/01/24 06:37:44;;;;;;;33.63;20.50;;;;;;;3.65;95.28;103266.31;5251799;28;20040;-66
2022/01/24 06:40:16;;;;;;;35.08;19.63;;;;;;;3.66;95.30;103265.44;5249236;28;20025;-66
2022/01/24 06:42:48;;;;;;;34.15;21.17;;;;;;;3.73;95.55;103267.13;5252428;28;20033;-66
2022/01/24 06:45:19;;;;;;;34.65;19.23;;;;;;;3.64;94.02;103259.25;5251983;28;20025;-66
2022/01/24 06:47:50;;;;;;;32.15;19.38;;;;;;;3.64;94.33;103259.25;5240758;28;20029;-66
2022/01/24 06:50:22;;;;;;;29.60;18.67;;;;;;;3.68;94.66;103268.94;5256787;28;20178;-66
2022/01/24 06:52:53;;;;;;;35.13;19.85;;;;;;;3.68;95.79;103261.00;5252563;28;20075;-66
2022/01/24 06:55:24;;;;;;;36.92;20.15;;;;;;;3.63;96.41;103262.81;5245081;28;20398;-66
2022/01/24 06:57:56;;;;;;;32.60;18.90;;;;;;;3.68;93.81;103278.59;5256549;28;20471;-66
2022/01/24 07:00:29;;;;;;;33.15;19.42;;;;;;;3.67;96.09;103268.94;5250274;28;20502;-66
2022/01/24 07:03:01;;;;;;;33.40;20.70;;;;;;;3.66;96.86;103265.44;5238828;28;20144;-66
2022/01/24 07:05:32;;;;;;;35.05;19.90;;;;;;;3.62;95.75;103268.97;5247013;28;20741;-66
2022/01/24 07:08:04;;;;;;;32.47;19.65;;;;;;;3.59;95.98;103271.66;5245943;28;20059;-66
2022/01/24 07:10:35;;;;;;;33.85;19.40;;;;;;;3.59;96.08;103263.72;5247371;28;20028;-66
2022/01/24 07:13:06;;;;;;;35.65;21.08;;;;;;;3.63;96.38;103275.13;5249459;28;20558;-66
2022/01/24 07:15:47;;;;;;;33.75;19.23;;;;;;;3.60;97.55;103272.50;5249347;28;20041;-66
2022/01/24 07:21:02;;;;;;;31.50;18.02;;;;;;;3.58;95.65;103277.81;5256507;28;20036;-66
2022/01/24 07:23:34;;;;;;;34.25;19.02;;;;;;;3.51;95.58;103273.47;5245322;28;20029;-66
2022/01/24 07:26:05;;;;;;;32.95;19.30;;;;;;;3.53;97.23;103280.50;5254418;28;20048;-66
2022/01/24 07:28:37;;;;;;;32.22;18.55;;;;;;;3.55;96.36;103280.47;5247032;28;20052;-67
2022/01/24 07:31:08;;;;;;;34.38;19.40;;;;;;;3.49;97.13;103278.75;5247806;28;20097;-66
2022/01/24 07:33:40;;;;;;;34.70;19.73;;;;;;;3.59;96.71;103282.22;5244761;28;20024;-66
2022/01/24 07:36:11;;;;;;;34.17;20.05;;;;;;;3.49;95.67;103273.47;5244677;28;20025;-66
2022/01/24 07:38:42;;;;;;;34.05;20.30;;;;;;;3.50;94.78;103274.34;5249672;28;20029;-68
2022/01/24 07:41:17;;;;;;;35.60;21.65;;;;;;;3.50;97.33;103279.63;5248298;28;20033;-66
2022/01/24 07:43:48;;;;;;;34.70;20.13;;;;;;;3.53;96.76;103279.63;5254341;28;20021;-66
2022/01/24 07:46:20;;;;;;;34.38;20.83;;;;;;;3.53;97.73;103277.84;5255154;28;20437;-66
2022/01/24 07:48:51;;;;;;;36.63;20.80;;;;;;;3.61;97.78;103280.44;5249206;28;20394;-66
2022/01/24 07:51:22;;;;;;;33.60;20.00;;;;;;;3.59;97.28;103273.41;5250050;28;20621;-66
2022/01/24 07:53:53;;;;;;;35.05;19.88;;;;;;;3.58;97.60;103279.56;5252587;28;20040;-66
2022/01/24 07:56:25;;;;;;;34.63;20.73;;;;;;;3.66;98.86;103291.84;5257040;28;20039;-66
2022/01/24 07:58:56;;;;;;;30.52;19.05;;;;;;;3.60;97.80;103291.84;5249767;28;20089;-66
2022/01/24 08:01:27;;;;;;;36.17;20.73;;;;;;;3.63;99.27;103302.41;5256225;28;20100;-66
2022/01/24 08:03:59;;;;;;;36.83;20.77;;;;;;;3.58;96.97;103301.56;5255266;28;20025;-66
2022/01/24 08:06:31;;;;;;;36.25;20.50;;;;;;;3.63;97.09;103304.19;5255585;28;20032;-66
2022/01/24 08:09:05;;;;;;;36.17;19.80;;;;;;;3.57;96.81;103306.84;5255367;28;20028;-66
2022/01/24 08:11:37;;;;;;;36.45;20.40;;;;;;;3.58;96.07;103309.47;5249216;28;20160;-66
2022/01/24 08:14:08;;;;;;;36.78;21.58;;;;;;;3.65;98.13;103310.31;5242431;28;20551;-66
2022/01/24 08:16:41;;;;;;;36.67;22.33;;;;;;;3.64;96.13;103309.41;5254164;28;20415;-66
2022/01/24 08:19:13;;;;;;;36.25;23.25;;;;;;;3.65;95.79;103305.03;5253919;28;20120;-66
2022/01/24 08:21:45;;;;;;;37.60;22.20;;;;;;;3.65;94.27;103305.91;5256993;28;20104;-66
2022/01/24 08:24:16;;;;;;;37.58;22.70;;;;;;;3.61;95.19;103316.50;5248062;28;20098;-66
2022/01/24 08:26:48;;;;;;;36.70;22.88;;;;;;;3.64;93.69;103319.13;5250504;28;20037;-66
2022/01/24 08:29:19;;;;;;;37.55;23.00;;;;;;;3.65;92.79;103316.47;5255736;28;20029;-66
2022/01/24 08:31:50;;;;;;;36.60;21.70;;;;;;;3.60;92.82;103305.06;5253780;28;20120;-66
2022/01/24 08:34:22;;;;;;;37.75;23.30;;;;;;;3.62;95.38;103316.47;5256158;28;20091;-66
2022/01/24 08:36:53;;;;;;;40.45;23.63;;;;;;;3.62;94.08;103313.84;5256238;28;20040;-66
2022/01/24 08:39:24;;;;;;;40.80;23.70;;;;;;;3.67;94.52;103309.41;5257100;28;20029;-66
2022/01/24 08:46:59;;;;;;;40.75;24.88;;;;;;;3.68;95.30;103312.91;5248376;28;20020;-66
2022/01/24 08:49:31;;;;;;;40.60;24.48;;;;;;;3.61;91.74;103317.38;5252476;28;20037;-66
2022/01/24 08:52:02;;;;;;;39.85;23.92;;;;;;;3.72;94.80;103312.91;5249913;28;20067;-66
2022/01/24 08:54:34;;;;;;;38.05;23.38;;;;;;;3.74;92.37;103320.81;5247990;28;20127;-66
2022/01/24 08:57:07;;;;;;;41.10;25.02;;;;;;;3.72;94.57;103323.47;5253778;28;20033;-66
2022/01/24 08:59:39;;;;;;;41.50;24.08;;;;;;;3.71;95.85;103320.81;5255089;28;20530;-66
2022/01/24 09:02:11;;;;;;;38.83;22.90;;;;;;;3.76;91.81;103324.31;5254000;28;20534;-66
2022/01/24 09:04:43;;;;;;;39.53;22.30;;;;;;;3.76;91.31;103323.41;5254771;28;20032;-66
2022/01/24 09:07:17;;;;;;;37.05;22.73;;;;;;;3.74;90.24;103323.47;5255909;28;20277;-66
2022/01/24 09:09:49;;;;;;;38.95;23.50;;;;;;;3.80;91.82;103331.31;5254424;28;20035;-66
2022/01/24 09:12:20;;;;;;;38.42;23.30;;;;;;;3.80;92.28;103318.13;5255708;28;20053;-66
2022/01/24 09:14:52;;;;;;;41.22;25.27;;;;;;;3.80;90.88;103328.69;5248201;28;20107;-66
2022/01/24 09:17:23;;;;;;;40.33;23.83;;;;;;;3.76;91.97;103319.03;5251238;28;20021;-66
2022/01/24 09:19:55;;;;;;;38.58;22.38;;;;;;;3.82;93.30;103334.81;5255709;28;20029;-66
2022/01/24 09:22:26;;;;;;;35.53;22.40;;;;;;;3.83;91.67;103327.78;5255428;28;20044;-66
2022/01/24 09:24:57;;;;;;;34.03;21.33;;;;;;;3.85;93.44;103328.63;5255202;28;20024;-66
2022/01/24 09:27:30;;;;;;;34.72;20.77;;;;;;;3.84;93.29;103332.19;5255546;28;20032;-66
2022/01/24 09:30:03;;;;;;;34.25;20.88;;;;;;;3.81;90.97;103332.19;5254673;28;20059;-66
2022/01/24 09:32:34;;;;;;;35.60;21.70;;;;;;;3.80;90.23;103327.81;5253976;28;20555;-66
2022/01/24 09:35:08;;;;;;;35.65;21.92;;;;;;;3.83;89.77;103322.50;5252300;28;20029;-66
2022/01/24 09:37:40;;;;;;;36.08;21.85;;;;;;;3.85;89.77;103321.56;5248212;28;20021;-66
2022/01/24 09:40:13;;;;;;;39.72;23.10;;;;;;;3.87;91.69;103324.22;5248975;28;20056;-66
2022/01/24 09:42:46;;;;;;;36.38;22.20;;;;;;;3.98;90.55;103324.13;5249749;28;20948;-66
2022/01/24 09:45:18;;;;;;;37.63;21.92;;;;;;;3.90;92.71;103321.56;5255016;28;20095;-66
2022/01/24 09:47:50;;;;;;;37.25;21.63;;;;;;;3.95;89.99;103318.88;5252896;28;20021;-66
2022/01/24 09:50:22;;;;;;;36.75;22.23;;;;;;;4.03;91.21;103327.63;5248080;28;20027;-66
2022/01/24 09:52:54;;;;;;;36.63;22.77;;;;;;;4.03;89.43;103323.19;5254352;28;20024;-66
2022/01/24 09:55:26;;;;;;;34.90;20.70;;;;;;;4.05;88.90;103321.41;5253629;28;20071;-66
2022/01/24 09:57:57;;;;;;;39.58;22.10;;;;;;;4.04;91.57;103324.06;5252115;28;20034;-66
2022/01/24 10:00:29;;;;;;;40.17;22.90;;;;;;;4.07;92.86;103327.56;5245145;28;20028;-66
2022/01/24 10:03:00;;;;;;;36.67;21.95;;;;;;;4.16;91.33;103320.44;5245711;28;20029;-66
2022/01/24 10:05:39;;;;;;;35.70;21.38;;;;;;;4.12;89.91;103323.13;5250626;28;20072;-66
2022/01/24 10:08:16;;;;;;;36.63;21.70;;;;;;;4.22;89.58;103323.91;5250013;28;20549;-66
2022/01/24 10:10:57;;;;;;;33.58;20.63;;;;;;;4.24;88.53;103322.13;5253114;28;20025;-66
2022/01/24 10:16:36;;;;;;;32.47;18.48;;;;;;;4.30;91.68;103318.53;5252777;28;20049;-67
2022/01/24 10:19:09;;;;;;;33.05;19.73;;;;;;;4.31;92.72;103317.63;5252321;28;20037;-67
2022/01/24 10:21:42;;;;;;;32.83;19.45;;;;;;;4.30;90.96;103319.41;5252603;28;20061;-67
2022/01/24 10:24:29;;;;;;;32.10;18.77;;;;;;;4.40;93.18;103317.53;5251384;28;20036;-67
2022/01/24 10:27:16;;;;;;;30.65;18.08;;;;;;;4.40;89.84;103328.13;5249607;28;20125;-67
2022/01/24 10:29:49;;;;;;;28.17;17.17;;;;;;;4.41;88.11;103327.25;5252556;28;20029;-67
2022/01/24 10:32:35;;;;;;;29.60;17.88;;;;;;;4.46;87.77;103320.13;5249183;28;20411;-67
2022/01/24 10:35:21;;;;;;;33.72;19.27;;;;;;;4.54;90.06;103322.66;5249964;28;20064;-67
2022/01/24 10:38:17;;;;;;;31.77;18.30;;;;;;;4.56;90.02;103314.72;5251634;28;20071;-67
2022/01/24 10:41:06;;;;;;;29.88;17.88;;;;;;;4.54;87.58;103319.16;5253268;28;20106;-67
2022/01/24 10:43:40;;;;;;;27.25;16.35;;;;;;;4.52;85.50;103316.53;5248877;28;20037;-67
2022/01/24 10:46:13;;;;;;;28.85;17.25;;;;;;;4.53;86.97;103312.13;5253373;28;20091;-67
2022/01/24 10:48:44;;;;;;;31.02;18.90;;;;;;;4.64;89.49;103315.50;5253290;28;20025;-67
2022/01/24 10:51:21;;;;;;;28.75;17.35;;;;;;;4.58;87.13;103305.88;5255538;28;20040;-67
2022/01/24 10:53:55;;;;;;;31.52;18.77;;;;;;;4.73;87.86;103302.19;5253765;28;20035;-67
2022/01/24 10:56:39;;;;;;;31.25;19.33;;;;;;;4.78;89.94;103304.78;5256116;28;20067;-67
2022/01/24 10:59:16;;;;;;;32.53;19.27;;;;;;;4.80;89.94;103303.00;5255359;28;20036;-67
2022/01/24 11:01:57;;;;;;;30.88;17.98;;;;;;;4.83;89.84;103298.53;5252848;28;20064;-67
2022/01/24 11:04:28;;;;;;;29.48;17.63;;;;;;;4.61;83.52;103295.28;5254328;28;20029;-67
2022/01/24 11:07:01;;;;;;;28.52;17.50;;;;;;;4.78;87.12;103300.38;5255733;28;20106;-67
2022/01/24 11:09:35;;;;;;;29.70;17.20;;;;;;;4.73;87.77;103288.97;5253784;28;20040;-67
2022/01/24 11:12:12;;;;;;;31.08;18.73;;;;;;;4.88;86.33;103293.19;5252288;28;20106;-67
2022/01/24 11:14:45;;;;;;;28.83;18.05;;;;;;;4.86;86.29;103293.19;5257158;28;20443;-67
2022/01/24 11:17:20;;;;;;;29.88;17.77;;;;;;;4.94;87.61;103294.88;5254979;28;20036;-67
2022/01/24 11:19:57;;;;;;;30.77;18.38;;;;;;;4.90;84.67;103292.25;5253303;28;20434;-67
2022/01/24 11:22:32;;;;;;;30.48;18.58;;;;;;;5.01;85.73;103296.56;5250887;28;20123;-67
2022/01/24 11:25:06;;;;;;;29.42;17.90;;;;;;;4.93;86.53;103283.44;5256082;28;20032;-67
2022/01/24 11:27:38;;;;;;;;;;;;;;;5.14;87.20;103289.28;5252967;28;20554;-67
2022/01/24 11:30:17;;;;;;;29.00;17.50;;;;;;;4.95;84.74;103301.91;5248335;28;19958;-66
2022/01/24 11:33:04;;;;;;;29.23;17.88;;;;;;;4.98;82.67;103284.22;5248169;28;20382;-67
2022/01/24 11:35:41;;;;;;;29.40;18.05;;;;;;;4.99;83.10;103285.13;5253373;28;20047;-67
2022/01/24 11:38:35;;;;;;;28.50;18.13;;;;;;;5.08;87.29;103284.97;5248017;28;20603;-67
2022/01/24 11:41:25;;;;;;;28.00;16.92;;;;;;;5.10;83.78;103288.44;5252818;28;20021;-67
2022/01/24 11:44:07;;;;;;;28.10;17.23;;;;;;;5.03;82.13;103286.81;5247808;28;20099;-67
2022/01/24 11:49:28;;;;;;;30.05;18.15;;;;;;;4.95;82.12;103288.66;5254089;28;20486;-67
2022/01/24 11:52:11;;;;;;;27.70;17.15;;;;;;;4.91;82.40;103283.44;5252028;28;20090;-67
2022/01/24 11:54:53;;;;;;;29.23;17.67;;;;;;;4.94;84.13;103279.00;5252100;28;20021;-67
2022/01/24 11:57:33;;;;;;;30.52;18.05;;;;;;;4.97;84.27;103271.91;5252175;28;20036;-67
2022/01/24 12:00:05;;;;;;;29.35;18.20;;;;;;;5.00;84.90;103281.56;5238671;28;20028;-67
2022/01/24 12:02:52;;;;;;;28.67;17.75;;;;;;;5.00;81.67;103281.56;5250850;28;20041;-67
2022/01/24 12:05:27;;;;;;;32.67;19.05;;;;;;;4.85;80.89;103272.94;5251509;28;20048;-67
2022/01/24 12:08:02;;;;;;;29.00;18.20;;;;;;;4.83;83.80;103258.88;5251778;28;20412;-67
2022/01/24 12:10:44;;;;;;;29.83;18.23;;;;;;;4.91;81.26;103258.75;5250077;28;20110;-67
2022/01/24 12:13:20;;;;;;;29.98;18.35;;;;;;;4.91;82.42;103261.41;5251469;28;20049;-67
2022/01/24 12:16:00;;;;;;;29.83;18.58;;;;;;;5.05;83.60;103251.50;5250723;28;20075;-66
2022/01/24 12:18:33;;;;;;;30.58;17.77;;;;;;;5.07;81.86;103256.75;5251267;28;20044;-69
2022/01/24 12:21:17;;;;;;;29.42;18.15;;;;;;;5.07;81.17;103259.41;5251987;28;20030;-67
2022/01/24 12:24:01;;;;;;;27.25;17.67;;;;;;;5.18;83.78;103259.22;5252406;28;20059;-67
2022/01/24 12:26:35;;;;;;;32.22;19.45;;;;;;;5.18;85.07;103260.13;5249963;28;20026;-67
2022/01/24 12:29:14;;;;;;;29.35;18.48;;;;;;;5.28;82.77;103245.84;5251246;28;20561;-67
2022/01/24 12:31:49;;;;;;;28.45;17.15;;;;;;;5.25;80.79;103245.91;5251873;28;20124;-67
2022/01/24 12:34:36;;;;;;;33.85;20.08;;;;;;;5.35;86.02;103245.75;5254012;28;20387;-67
2022/01/24 12:37:08;;;;;;;31.75;18.25;;;;;;;5.32;81.57;103246.69;5252568;28;20494;-67
2022/01/24 12:39:58;;;;;;;30.42;18.30;;;;;;;5.37;82.26;103249.25;5254118;28;20084;-67
2022/01/24 12:42:58;;;;;;;29.67;18.27;;;;;;;5.40;85.08;103239.47;5253936;28;20078;-67
2022/01/24 12:48:19;;;;;;;29.25;18.33;;;;;;;5.39;80.37;103240.41;5255142;28;20040;-67
2022/01/24 12:50:52;;;;;;;30.50;19.02;;;;;;;5.46;82.23;103235.84;5255472;28;20025;-67
2022/01/24 12:53:23;;;;;;;30.42;19.05;;;;;;;5.43;81.90;103231.50;5253157;28;20415;-67
2022/01/24 12:56:03;;;;;;;30.83;19.05;;;;;;;5.39;80.53;103235.09;5252463;28;20028;-67
2022/01/24 12:58:46;;;;;;;32.03;19.48;;;;;;;5.55;84.85;103233.06;5254207;28;20423;-67
2022/01/24 13:01:24;;;;;;;28.85;17.98;;;;;;;5.36;78.71;103235.13;5251379;28;20033;-67
2022/01/24 13:03:59;;;;;;;31.13;18.58;;;;;;;5.16;78.61;103224.88;5253409;28;20029;-67
2022/01/24 13:06:33;;;;;;;33.97;20.30;;;;;;;5.20;81.00;103223.94;5251318;28;20021;-66
2022/01/24 13:09:04;;;;;;;33.78;20.73;;;;;;;5.32;80.16;103214.06;5255781;28;20035;-67
2022/01/24 13:11:44;;;;;;;36.78;21.15;;;;;;;5.20;83.71;103210.69;5253602;28;20045;-67
2022/01/24 13:14:30;;;;;;;31.00;18.95;;;;;;;5.07;77.62;103203.84;5251013;28;20116;-67
2022/01/24 13:22:56;;;;;;;33.17;20.83;;;;;;;4.98;79.96;103190.75;5249863;28;20045;-67
2022/01/24 13:25:32;;;;;;;30.70;19.17;;;;;;;4.99;80.22;103200.44;5250862;28;20025;-67
2022/01/24 13:28:06;;;;;;;30.77;18.90;;;;;;;4.95;80.84;103212.84;5253698;28;20490;-67
2022/01/24 13:30:42;;;;;;;30.77;19.38;;;;;;;4.89;79.45;103219.09;5250298;28;20111;-67
2022/01/24 13:33:20;;;;;;;32.03;19.92;;;;;;;4.84;79.95;103222.72;5252904;28;20128;-67
2022/01/24 13:35:55;;;;;;;32.28;18.95;;;;;;;4.80;80.87;103219.22;5251662;28;20040;-67